sensor_id;sensor_type;location;lat;lon;timestamp;P1;durP1;ratioP1;P2;durP2;ratioP2
80199;SDS011;69520;44.900;-0.764;2023-04-25T00:01:31;7.97;;;3.35;;
80199;SDS011;69520;44.900;-0.764;2023-04-25T00:04:00;7.45;;;2.75;;
80199;SDS011;69520;44.900;-0.764;2023-04-25T00:06:27;7.50;;;2.72;;
80199;SDS011;69520;44.900;-0.764;2023-04-25T00:08:54;9.48;;;2.88;;
80199;SDS011;69520;44.900;-0.764;2023-04-25T00:11:21;6.90;;;2.70;;
80199;SDS011;69520;44.900;-0.764;2023-04-25T00:13:47;8.18;;;3.15;;
80199;SDS011;69520;44.900;-0.764;2023-04-25T00:16:14;7.18;;;2.72;;
80199;SDS011;69520;44.900;-0.764;2023-04-25T00:18:43;7.10;;;2.20;;
80199;SDS011;69520;44.900;-0.764;2023-04-25T00:21:16;8.13;;;2.50;;
80199;SDS011;69520;44.900;-0.764;2023-04-25T00:23:43;7.40;;;2.10;;
80199;SDS011;69520;44.900;-0.764;2023-04-25T00:26:10;5.97;;;1.92;;
80199;SDS011;69520;44.900;-0.764;2023-04-25T00:28:37;7.75;;;2.20;;
80199;SDS011;69520;44.900;-0.764;2023-04-25T00:31:03;6.88;;;2.25;;
80199;SDS011;69520;44.900;-0.764;2023-04-25T00:33:29;8.07;;;2.53;;
80199;SDS011;69520;44.900;-0.764;2023-04-25T00:35:55;7.80;;;2.30;;
80199;SDS011;69520;44.900;-0.764;2023-04-25T00:38:21;7.07;;;2.40;;
80199;SDS011;69520;44.900;-0.764;2023-04-25T00:40:47;6.25;;;2.10;;
80199;SDS011;69520;44.900;-0.764;2023-04-25T00:43:13;6.97;;;2.25;;
80199;SDS011;69520;44.900;-0.764;2023-04-25T00:45:39;6.22;;;2.10;;
80199;SDS011;69520;44.900;-0.764;2023-04-25T00:48:06;6.93;;;2.17;;
80199;SDS011;69520;44.900;-0.764;2023-04-25T00:50:33;6.27;;;1.97;;
80199;SDS011;69520;44.900;-0.764;2023-04-25T00:52:59;7.53;;;2.60;;
80199;SDS011;69520;44.900;-0.764;2023-04-25T00:55:26;6.40;;;2.25;;
80199;SDS011;69520;44.900;-0.764;2023-04-25T00:57:52;7.18;;;2.65;;
80199;SDS011;69520;44.900;-0.764;2023-04-25T01:00:18;7.32;;;2.70;;
80199;SDS011;69520;44.900;-0.764;2023-04-25T01:02:45;8.50;;;3.43;;
80199;SDS011;69520;44.900;-0.764;2023-04-25T01:05:12;10.65;;;3.60;;
80199;SDS011;69520;44.900;-0.764;2023-04-25T01:07:38;7.63;;;2.90;;
80199;SDS011;69520;44.900;-0.764;2023-04-25T01:10:05;8.27;;;2.85;;
80199;SDS011;69520;44.900;-0.764;2023-04-25T01:12:31;8.68;;;2.80;;
80199;SDS011;69520;44.900;-0.764;2023-04-25T01:14:57;7.93;;;2.60;;
80199;SDS011;69520;44.900;-0.764;2023-04-25T01:17:24;6.97;;;2.50;;
80199;SDS011;69520;44.900;-0.764;2023-04-25T01:19:50;7.97;;;2.38;;
80199;SDS011;69520;44.900;-0.764;2023-04-25T01:22:16;7.55;;;2.38;;
80199;SDS011;69520;44.900;-0.764;2023-04-25T01:24:43;8.60;;;2.60;;
80199;SDS011;69520;44.900;-0.764;2023-04-25T01:27:09;6.80;;;2.30;;
80199;SDS011;69520;44.900;-0.764;2023-04-25T01:29:35;7.53;;;2.58;;
80199;SDS011;69520;44.900;-0.764;2023-04-25T01:32:02;7.97;;;2.40;;
80199;SDS011;69520;44.900;-0.764;2023-04-25T01:34:28;6.20;;;2.40;;
80199;SDS011;69520;44.900;-0.764;2023-04-25T01:36:54;6.65;;;2.35;;
80199;SDS011;69520;44.900;-0.764;2023-04-25T01:39:20;6.27;;;2.17;;
80199;SDS011;69520;44.900;-0.764;2023-04-25T01:41:47;7.40;;;2.50;;
80199;SDS011;69520;44.900;-0.764;2023-04-25T01:44:13;8.15;;;2.50;;
80199;SDS011;69520;44.900;-0.764;2023-04-25T01:46:39;7.35;;;2.50;;
80199;SDS011;69520;44.900;-0.764;2023-04-25T01:49:06;6.10;;;2.38;;
80199;SDS011;69520;44.900;-0.764;2023-04-25T01:51:32;7.70;;;2.57;;
80199;SDS011;69520;44.900;-0.764;2023-04-25T01:53:58;7.28;;;2.78;;
80199;SDS011;69520;44.900;-0.764;2023-04-25T01:56:24;8.23;;;3.00;;
80199;SDS011;69520;44.900;-0.764;2023-04-25T01:58:50;8.07;;;2.90;;
80199;SDS011;69520;44.900;-0.764;2023-04-25T02:01:17;6.93;;;2.58;;
80199;SDS011;69520;44.900;-0.764;2023-04-25T02:03:43;7.60;;;3.27;;
80199;SDS011;69520;44.900;-0.764;2023-04-25T02:06:09;7.85;;;2.78;;
80199;SDS011;69520;44.900;-0.764;2023-04-25T02:08:35;8.38;;;2.72;;
80199;SDS011;69520;44.900;-0.764;2023-04-25T02:11:02;8.60;;;2.97;;
80199;SDS011;69520;44.900;-0.764;2023-04-25T02:13:28;8.43;;;2.90;;
80199;SDS011;69520;44.900;-0.764;2023-04-25T02:15:54;10.13;;;2.67;;
80199;SDS011;69520;44.900;-0.764;2023-04-25T02:18:20;8.45;;;2.70;;
80199;SDS011;69520;44.900;-0.764;2023-04-25T02:20:46;8.00;;;2.90;;
80199;SDS011;69520;44.900;-0.764;2023-04-25T02:23:12;9.30;;;2.80;;
80199;SDS011;69520;44.900;-0.764;2023-04-25T02:25:40;7.95;;;2.90;;
80199;SDS011;69520;44.900;-0.764;2023-04-25T02:28:06;8.27;;;3.17;;
80199;SDS011;69520;44.900;-0.764;2023-04-25T02:30:32;8.57;;;3.30;;
80199;SDS011;69520;44.900;-0.764;2023-04-25T02:32:58;7.60;;;2.80;;
80199;SDS011;69520;44.900;-0.764;2023-04-25T02:35:24;8.27;;;3.15;;
80199;SDS011;69520;44.900;-0.764;2023-04-25T02:37:50;8.15;;;3.17;;
80199;SDS011;69520;44.900;-0.764;2023-04-25T02:40:16;11.73;;;3.67;;
80199;SDS011;69520;44.900;-0.764;2023-04-25T02:42:42;7.80;;;3.20;;
80199;SDS011;69520;44.900;-0.764;2023-04-25T02:45:10;8.40;;;3.10;;
80199;SDS011;69520;44.900;-0.764;2023-04-25T02:47:36;8.70;;;3.42;;
80199;SDS011;69520;44.900;-0.764;2023-04-25T02:50:03;8.88;;;3.53;;
80199;SDS011;69520;44.900;-0.764;2023-04-25T02:52:29;8.90;;;3.50;;
80199;SDS011;69520;44.900;-0.764;2023-04-25T02:54:55;7.97;;;3.65;;
80199;SDS011;69520;44.900;-0.764;2023-04-25T02:57:21;9.57;;;3.45;;
80199;SDS011;69520;44.900;-0.764;2023-04-25T02:59:47;9.20;;;3.70;;
80199;SDS011;69520;44.900;-0.764;2023-04-25T03:02:13;8.30;;;3.03;;
80199;SDS011;69520;44.900;-0.764;2023-04-25T03:04:39;8.77;;;3.43;;
80199;SDS011;69520;44.900;-0.764;2023-04-25T03:07:06;8.15;;;3.40;;
80199;SDS011;69520;44.900;-0.764;2023-04-25T03:09:32;8.05;;;3.35;;
80199;SDS011;69520;44.900;-0.764;2023-04-25T03:11:58;8.15;;;3.03;;
80199;SDS011;69520;44.900;-0.764;2023-04-25T03:14:24;7.47;;;2.78;;
80199;SDS011;69520;44.900;-0.764;2023-04-25T03:16:50;6.87;;;2.87;;
80199;SDS011;69520;44.900;-0.764;2023-04-25T03:19:16;6.45;;;2.60;;
80199;SDS011;69520;44.900;-0.764;2023-04-25T03:21:43;7.38;;;2.83;;
80199;SDS011;69520;44.900;-0.764;2023-04-25T03:24:09;6.43;;;2.53;;
80199;SDS011;69520;44.900;-0.764;2023-04-25T03:26:38;6.60;;;2.50;;
80199;SDS011;69520;44.900;-0.764;2023-04-25T03:29:04;7.60;;;2.30;;
80199;SDS011;69520;44.900;-0.764;2023-04-25T03:31:30;5.72;;;2.00;;
80199;SDS011;69520;44.900;-0.764;2023-04-25T03:33:56;5.80;;;2.10;;
80199;SDS011;69520;44.900;-0.764;2023-04-25T03:36:22;5.78;;;1.85;;
80199;SDS011;69520;44.900;-0.764;2023-04-25T03:38:48;5.82;;;2.00;;
80199;SDS011;69520;44.900;-0.764;2023-04-25T03:41:15;5.53;;;2.10;;
80199;SDS011;69520;44.900;-0.764;2023-04-25T03:43:41;5.68;;;2.03;;
80199;SDS011;69520;44.900;-0.764;2023-04-25T03:46:07;5.00;;;1.85;;
80199;SDS011;69520;44.900;-0.764;2023-04-25T03:48:33;5.78;;;1.67;;
80199;SDS011;69520;44.900;-0.764;2023-04-25T03:50:59;5.63;;;2.03;;
80199;SDS011;69520;44.900;-0.764;2023-04-25T03:53:25;5.37;;;1.80;;
80199;SDS011;69520;44.900;-0.764;2023-04-25T03:55:51;6.25;;;1.67;;
80199;SDS011;69520;44.900;-0.764;2023-04-25T03:58:17;5.32;;;1.77;;
80199;SDS011;69520;44.900;-0.764;2023-04-25T04:00:43;6.47;;;1.83;;
80199;SDS011;69520;44.900;-0.764;2023-04-25T04:03:09;5.63;;;1.83;;
80199;SDS011;69520;44.900;-0.764;2023-04-25T04:05:36;5.57;;;1.90;;
80199;SDS011;69520;44.900;-0.764;2023-04-25T04:08:02;5.93;;;1.70;;
80199;SDS011;69520;44.900;-0.764;2023-04-25T04:10:28;5.13;;;1.65;;
80199;SDS011;69520;44.900;-0.764;2023-04-25T04:12:54;5.70;;;1.83;;
80199;SDS011;69520;44.900;-0.764;2023-04-25T04:15:20;6.53;;;1.70;;
80199;SDS011;69520;44.900;-0.764;2023-04-25T04:17:47;5.80;;;1.90;;
80199;SDS011;69520;44.900;-0.764;2023-04-25T04:20:13;5.30;;;1.77;;
80199;SDS011;69520;44.900;-0.764;2023-04-25T04:22:39;5.82;;;2.05;;
80199;SDS011;69520;44.900;-0.764;2023-04-25T04:25:05;6.10;;;1.88;;
80199;SDS011;69520;44.900;-0.764;2023-04-25T04:27:32;5.97;;;1.90;;
80199;SDS011;69520;44.900;-0.764;2023-04-25T04:29:58;5.80;;;1.90;;
80199;SDS011;69520;44.900;-0.764;2023-04-25T04:32:24;5.13;;;1.88;;
80199;SDS011;69520;44.900;-0.764;2023-04-25T04:34:50;5.97;;;1.67;;
80199;SDS011;69520;44.900;-0.764;2023-04-25T04:37:17;5.13;;;1.67;;
80199;SDS011;69520;44.900;-0.764;2023-04-25T04:39:43;6.28;;;1.75;;
80199;SDS011;69520;44.900;-0.764;2023-04-25T04:42:10;6.17;;;1.83;;
80199;SDS011;69520;44.900;-0.764;2023-04-25T04:44:36;6.55;;;1.98;;
80199;SDS011;69520;44.900;-0.764;2023-04-25T04:47:04;5.78;;;1.70;;
80199;SDS011;69520;44.900;-0.764;2023-04-25T04:49:31;6.10;;;1.80;;
80199;SDS011;69520;44.900;-0.764;2023-04-25T04:51:57;5.40;;;1.65;;
80199;SDS011;69520;44.900;-0.764;2023-04-25T04:54:24;5.73;;;1.80;;
80199;SDS011;69520;44.900;-0.764;2023-04-25T04:56:50;5.72;;;1.88;;
80199;SDS011;69520;44.900;-0.764;2023-04-25T04:59:17;5.40;;;2.03;;
80199;SDS011;69520;44.900;-0.764;2023-04-25T05:01:43;6.40;;;1.92;;
80199;SDS011;69520;44.900;-0.764;2023-04-25T05:04:09;6.70;;;2.40;;
80199;SDS011;69520;44.900;-0.764;2023-04-25T05:06:35;7.67;;;2.30;;
80199;SDS011;69520;44.900;-0.764;2023-04-25T05:09:01;5.95;;;2.30;;
80199;SDS011;69520;44.900;-0.764;2023-04-25T05:11:27;7.00;;;2.25;;
80199;SDS011;69520;44.900;-0.764;2023-04-25T05:13:53;6.65;;;2.42;;
80199;SDS011;69520;44.900;-0.764;2023-04-25T05:16:20;6.70;;;2.08;;
80199;SDS011;69520;44.900;-0.764;2023-04-25T05:18:46;7.37;;;2.40;;
80199;SDS011;69520;44.900;-0.764;2023-04-25T05:21:12;5.85;;;2.15;;
80199;SDS011;69520;44.900;-0.764;2023-04-25T05:23:38;6.10;;;2.05;;
80199;SDS011;69520;44.900;-0.764;2023-04-25T05:26:04;8.02;;;2.60;;
80199;SDS011;69520;44.900;-0.764;2023-04-25T05:28:31;6.68;;;2.15;;
80199;SDS011;69520;44.900;-0.764;2023-04-25T05:30:57;6.83;;;2.23;;
80199;SDS011;69520;44.900;-0.764;2023-04-25T05:33:23;5.72;;;2.10;;
80199;SDS011;69520;44.900;-0.764;2023-04-25T05:35:49;6.60;;;2.25;;
80199;SDS011;69520;44.900;-0.764;2023-04-25T05:38:15;6.72;;;2.20;;
80199;SDS011;69520;44.900;-0.764;2023-04-25T05:40:41;6.53;;;2.33;;
80199;SDS011;69520;44.900;-0.764;2023-04-25T05:43:07;6.53;;;2.50;;
80199;SDS011;69520;44.900;-0.764;2023-04-25T05:45:33;7.30;;;2.42;;
80199;SDS011;69520;44.900;-0.764;2023-04-25T05:47:59;6.40;;;2.80;;
80199;SDS011;69520;44.900;-0.764;2023-04-25T05:50:25;6.88;;;2.50;;
80199;SDS011;69520;44.900;-0.764;2023-04-25T05:52:51;5.88;;;2.10;;
80199;SDS011;69520;44.900;-0.764;2023-04-25T05:55:17;7.67;;;2.23;;
80199;SDS011;69520;44.900;-0.764;2023-04-25T05:57:43;6.30;;;2.40;;
80199;SDS011;69520;44.900;-0.764;2023-04-25T06:00:11;7.30;;;2.60;;
80199;SDS011;69520;44.900;-0.764;2023-04-25T06:02:37;7.68;;;2.42;;
80199;SDS011;69520;44.900;-0.764;2023-04-25T06:05:03;7.05;;;2.45;;
80199;SDS011;69520;44.900;-0.764;2023-04-25T06:07:30;6.73;;;2.47;;
80199;SDS011;69520;44.900;-0.764;2023-04-25T06:09:56;6.93;;;2.63;;
80199;SDS011;69520;44.900;-0.764;2023-04-25T06:12:22;6.63;;;2.45;;
80199;SDS011;69520;44.900;-0.764;2023-04-25T06:14:48;7.10;;;2.63;;
80199;SDS011;69520;44.900;-0.764;2023-04-25T06:17:14;7.65;;;2.80;;
80199;SDS011;69520;44.900;-0.764;2023-04-25T06:19:40;8.23;;;2.63;;
80199;SDS011;69520;44.900;-0.764;2023-04-25T06:22:06;6.57;;;2.35;;
80199;SDS011;69520;44.900;-0.764;2023-04-25T06:24:33;7.50;;;2.20;;
80199;SDS011;69520;44.900;-0.764;2023-04-25T06:26:59;8.07;;;2.75;;
80199;SDS011;69520;44.900;-0.764;2023-04-25T06:29:25;6.95;;;2.67;;
80199;SDS011;69520;44.900;-0.764;2023-04-25T06:31:51;5.83;;;2.13;;
80199;SDS011;69520;44.900;-0.764;2023-04-25T06:34:17;7.82;;;2.60;;
80199;SDS011;69520;44.900;-0.764;2023-04-25T06:36:43;6.05;;;2.20;;
80199;SDS011;69520;44.900;-0.764;2023-04-25T06:39:09;6.60;;;2.47;;
80199;SDS011;69520;44.900;-0.764;2023-04-25T06:41:35;7.55;;;2.60;;
80199;SDS011;69520;44.900;-0.764;2023-04-25T06:44:02;6.70;;;2.30;;
80199;SDS011;69520;44.900;-0.764;2023-04-25T06:46:28;6.32;;;2.30;;
80199;SDS011;69520;44.900;-0.764;2023-04-25T06:48:54;7.57;;;2.80;;
80199;SDS011;69520;44.900;-0.764;2023-04-25T06:51:20;7.00;;;2.47;;
80199;SDS011;69520;44.900;-0.764;2023-04-25T06:53:46;7.60;;;2.80;;
80199;SDS011;69520;44.900;-0.764;2023-04-25T06:56:12;7.57;;;2.90;;
80199;SDS011;69520;44.900;-0.764;2023-04-25T06:58:38;8.48;;;2.70;;
80199;SDS011;69520;44.900;-0.764;2023-04-25T07:01:04;7.03;;;2.40;;
80199;SDS011;69520;44.900;-0.764;2023-04-25T07:03:30;6.28;;;2.70;;
80199;SDS011;69520;44.900;-0.764;2023-04-25T07:05:56;6.82;;;2.50;;
80199;SDS011;69520;44.900;-0.764;2023-04-25T07:08:22;7.40;;;2.80;;
80199;SDS011;69520;44.900;-0.764;2023-04-25T07:10:48;7.38;;;2.60;;
80199;SDS011;69520;44.900;-0.764;2023-04-25T07:13:14;8.23;;;2.38;;
80199;SDS011;69520;44.900;-0.764;2023-04-25T07:15:40;7.25;;;2.92;;
80199;SDS011;69520;44.900;-0.764;2023-04-25T07:18:07;7.20;;;2.40;;
80199;SDS011;69520;44.900;-0.764;2023-04-25T07:20:33;7.53;;;2.60;;
80199;SDS011;69520;44.900;-0.764;2023-04-25T07:22:59;7.38;;;2.70;;
80199;SDS011;69520;44.900;-0.764;2023-04-25T07:25:25;7.20;;;3.13;;
80199;SDS011;69520;44.900;-0.764;2023-04-25T07:27:51;7.20;;;3.25;;
80199;SDS011;69520;44.900;-0.764;2023-04-25T07:30:17;7.53;;;3.17;;
80199;SDS011;69520;44.900;-0.764;2023-04-25T07:32:43;7.77;;;2.90;;
80199;SDS011;69520;44.900;-0.764;2023-04-25T07:35:10;8.70;;;3.28;;
80199;SDS011;69520;44.900;-0.764;2023-04-25T07:37:36;7.07;;;3.28;;
80199;SDS011;69520;44.900;-0.764;2023-04-25T07:40:02;7.15;;;3.15;;
80199;SDS011;69520;44.900;-0.764;2023-04-25T07:42:29;8.75;;;3.10;;
80199;SDS011;69520;44.900;-0.764;2023-04-25T07:44:55;8.20;;;3.83;;
80199;SDS011;69520;44.900;-0.764;2023-04-25T07:47:21;7.40;;;3.63;;
80199;SDS011;69520;44.900;-0.764;2023-04-25T07:49:47;7.82;;;3.30;;
80199;SDS011;69520;44.900;-0.764;2023-04-25T07:52:13;8.98;;;3.83;;
80199;SDS011;69520;44.900;-0.764;2023-04-25T07:54:39;10.45;;;4.18;;
80199;SDS011;69520;44.900;-0.764;2023-04-25T07:57:05;8.37;;;3.60;;
80199;SDS011;69520;44.900;-0.764;2023-04-25T07:59:31;9.27;;;4.05;;
80199;SDS011;69520;44.900;-0.764;2023-04-25T08:01:57;8.02;;;3.70;;
80199;SDS011;69520;44.900;-0.764;2023-04-25T08:04:24;9.93;;;3.90;;
80199;SDS011;69520;44.900;-0.764;2023-04-25T08:06:50;8.25;;;3.70;;
80199;SDS011;69520;44.900;-0.764;2023-04-25T08:09:18;8.57;;;3.87;;
80199;SDS011;69520;44.900;-0.764;2023-04-25T08:11:44;10.73;;;4.28;;
80199;SDS011;69520;44.900;-0.764;2023-04-25T08:14:11;8.15;;;3.78;;
80199;SDS011;69520;44.900;-0.764;2023-04-25T08:16:37;9.02;;;3.83;;
80199;SDS011;69520;44.900;-0.764;2023-04-25T08:19:03;9.20;;;3.88;;
80199;SDS011;69520;44.900;-0.764;2023-04-25T08:21:29;8.13;;;3.70;;
80199;SDS011;69520;44.900;-0.764;2023-04-25T08:23:56;7.90;;;3.50;;
80199;SDS011;69520;44.900;-0.764;2023-04-25T08:26:23;11.65;;;4.50;;
80199;SDS011;69520;44.900;-0.764;2023-04-25T08:28:49;9.63;;;4.20;;
80199;SDS011;69520;44.900;-0.764;2023-04-25T08:31:15;10.43;;;4.15;;
80199;SDS011;69520;44.900;-0.764;2023-04-25T08:33:42;10.90;;;4.50;;
80199;SDS011;69520;44.900;-0.764;2023-04-25T08:36:09;10.73;;;4.60;;
80199;SDS011;69520;44.900;-0.764;2023-04-25T08:38:35;10.35;;;4.50;;
80199;SDS011;69520;44.900;-0.764;2023-04-25T08:41:01;10.63;;;4.57;;
80199;SDS011;69520;44.900;-0.764;2023-04-25T08:43:28;10.70;;;4.45;;
80199;SDS011;69520;44.900;-0.764;2023-04-25T08:45:58;11.83;;;4.53;;
80199;SDS011;69520;44.900;-0.764;2023-04-25T08:48:25;11.15;;;4.53;;
80199;SDS011;69520;44.900;-0.764;2023-04-25T08:50:53;9.75;;;5.10;;
80199;SDS011;69520;44.900;-0.764;2023-04-25T08:53:22;10.90;;;5.53;;
80199;SDS011;69520;44.900;-0.764;2023-04-25T08:55:48;9.52;;;4.88;;
80199;SDS011;69520;44.900;-0.764;2023-04-25T08:58:15;12.57;;;5.60;;
80199;SDS011;69520;44.900;-0.764;2023-04-25T09:00:41;10.60;;;5.18;;
80199;SDS011;69520;44.900;-0.764;2023-04-25T09:03:07;11.05;;;4.90;;
80199;SDS011;69520;44.900;-0.764;2023-04-25T09:05:33;10.27;;;5.03;;
80199;SDS011;69520;44.900;-0.764;2023-04-25T09:08:00;11.65;;;4.90;;
80199;SDS011;69520;44.900;-0.764;2023-04-25T09:10:27;10.33;;;4.60;;
80199;SDS011;69520;44.900;-0.764;2023-04-25T09:13:03;9.35;;;4.40;;
80199;SDS011;69520;44.900;-0.764;2023-04-25T09:15:29;10.02;;;4.70;;
80199;SDS011;69520;44.900;-0.764;2023-04-25T09:17:56;9.82;;;4.72;;
80199;SDS011;69520;44.900;-0.764;2023-04-25T09:20:22;8.48;;;3.58;;
80199;SDS011;69520;44.900;-0.764;2023-04-25T09:22:49;9.70;;;4.00;;
80199;SDS011;69520;44.900;-0.764;2023-04-25T09:25:15;8.50;;;3.90;;
80199;SDS011;69520;44.900;-0.764;2023-04-25T09:27:52;8.52;;;3.70;;
80199;SDS011;69520;44.900;-0.764;2023-04-25T09:30:18;10.70;;;4.00;;
80199;SDS011;69520;44.900;-0.764;2023-04-25T09:32:44;10.20;;;4.20;;
80199;SDS011;69520;44.900;-0.764;2023-04-25T09:35:10;10.03;;;4.27;;
80199;SDS011;69520;44.900;-0.764;2023-04-25T09:37:36;8.80;;;4.30;;
80199;SDS011;69520;44.900;-0.764;2023-04-25T09:40:05;8.45;;;4.20;;
80199;SDS011;69520;44.900;-0.764;2023-04-25T09:42:32;9.80;;;4.22;;
80199;SDS011;69520;44.900;-0.764;2023-04-25T09:45:00;9.30;;;4.15;;
80199;SDS011;69520;44.900;-0.764;2023-04-25T09:47:29;10.70;;;4.53;;
80199;SDS011;69520;44.900;-0.764;2023-04-25T09:49:55;9.52;;;3.90;;
80199;SDS011;69520;44.900;-0.764;2023-04-25T09:52:24;8.85;;;4.35;;
80199;SDS011;69520;44.900;-0.764;2023-04-25T09:54:51;8.82;;;3.90;;
80199;SDS011;69520;44.900;-0.764;2023-04-25T09:57:21;9.60;;;4.20;;
80199;SDS011;69520;44.900;-0.764;2023-04-25T09:59:48;9.07;;;4.23;;
80199;SDS011;69520;44.900;-0.764;2023-04-25T10:02:15;8.13;;;3.70;;
80199;SDS011;69520;44.900;-0.764;2023-04-25T10:04:41;11.27;;;3.85;;
80199;SDS011;69520;44.900;-0.764;2023-04-25T10:07:08;10.77;;;4.47;;
80199;SDS011;69520;44.900;-0.764;2023-04-25T10:09:38;10.07;;;4.15;;
80199;SDS011;69520;44.900;-0.764;2023-04-25T10:12:05;11.23;;;4.13;;
80199;SDS011;69520;44.900;-0.764;2023-04-25T10:14:32;10.55;;;4.60;;
80199;SDS011;69520;44.900;-0.764;2023-04-25T10:16:58;11.63;;;4.57;;
80199;SDS011;69520;44.900;-0.764;2023-04-25T10:19:25;11.07;;;5.10;;
80199;SDS011;69520;44.900;-0.764;2023-04-25T10:21:52;9.30;;;4.55;;
80199;SDS011;69520;44.900;-0.764;2023-04-25T10:24:19;10.07;;;4.30;;
80199;SDS011;69520;44.900;-0.764;2023-04-25T10:26:46;9.43;;;4.43;;
80199;SDS011;69520;44.900;-0.764;2023-04-25T10:29:12;10.15;;;4.65;;
80199;SDS011;69520;44.900;-0.764;2023-04-25T10:31:45;11.32;;;5.28;;
80199;SDS011;69520;44.900;-0.764;2023-04-25T10:34:12;12.13;;;5.65;;
80199;SDS011;69520;44.900;-0.764;2023-04-25T10:36:38;11.87;;;5.10;;
80199;SDS011;69520;44.900;-0.764;2023-04-25T10:39:05;12.48;;;5.05;;
80199;SDS011;69520;44.900;-0.764;2023-04-25T10:42:18;8.65;;;4.45;;
80199;SDS011;69520;44.900;-0.764;2023-04-25T10:44:20;9.32;;;4.70;;
80199;SDS011;69520;44.900;-0.764;2023-04-25T10:46:46;9.60;;;4.82;;
80199;SDS011;69520;44.900;-0.764;2023-04-25T10:49:28;9.63;;;4.70;;
80199;SDS011;69520;44.900;-0.764;2023-04-25T10:52:10;11.63;;;5.80;;
80199;SDS011;69520;44.900;-0.764;2023-04-25T10:54:40;9.20;;;4.57;;
80199;SDS011;69520;44.900;-0.764;2023-04-25T10:57:07;9.23;;;4.70;;
80199;SDS011;69520;44.900;-0.764;2023-04-25T10:59:33;10.45;;;4.97;;
80199;SDS011;69520;44.900;-0.764;2023-04-25T11:01:59;10.73;;;4.20;;
80199;SDS011;69520;44.900;-0.764;2023-04-25T11:04:28;9.63;;;4.70;;
80199;SDS011;69520;44.900;-0.764;2023-04-25T11:09:37;11.93;;;4.93;;
80199;SDS011;69520;44.900;-0.764;2023-04-25T11:12:04;10.00;;;4.18;;
80199;SDS011;69520;44.900;-0.764;2023-04-25T11:14:30;10.47;;;4.00;;
80199;SDS011;69520;44.900;-0.764;2023-04-25T11:16:57;9.18;;;4.50;;
80199;SDS011;69520;44.900;-0.764;2023-04-25T11:19:24;9.77;;;4.70;;
80199;SDS011;69520;44.900;-0.764;2023-04-25T11:21:50;9.55;;;4.78;;
80199;SDS011;69520;44.900;-0.764;2023-04-25T11:24:16;9.20;;;4.13;;
80199;SDS011;69520;44.900;-0.764;2023-04-25T11:26:43;10.13;;;4.70;;
80199;SDS011;69520;44.900;-0.764;2023-04-25T11:29:09;8.52;;;4.25;;
80199;SDS011;69520;44.900;-0.764;2023-04-25T11:31:35;8.85;;;4.50;;
80199;SDS011;69520;44.900;-0.764;2023-04-25T11:34:01;9.75;;;5.05;;
80199;SDS011;69520;44.900;-0.764;2023-04-25T11:36:27;9.02;;;4.32;;
80199;SDS011;69520;44.900;-0.764;2023-04-25T11:38:53;9.93;;;4.40;;
80199;SDS011;69520;44.900;-0.764;2023-04-25T11:41:19;11.63;;;4.90;;
80199;SDS011;69520;44.900;-0.764;2023-04-25T11:43:47;9.65;;;4.40;;
80199;SDS011;69520;44.900;-0.764;2023-04-25T11:46:13;14.82;;;7.07;;
80199;SDS011;69520;44.900;-0.764;2023-04-25T11:48:40;12.75;;;6.55;;
80199;SDS011;69520;44.900;-0.764;2023-04-25T11:51:06;11.03;;;5.77;;
80199;SDS011;69520;44.900;-0.764;2023-04-25T11:53:32;9.82;;;4.47;;
80199;SDS011;69520;44.900;-0.764;2023-04-25T11:55:58;8.20;;;4.20;;
80199;SDS011;69520;44.900;-0.764;2023-04-25T11:58:25;9.77;;;4.65;;
80199;SDS011;69520;44.900;-0.764;2023-04-25T12:00:51;9.73;;;4.75;;
80199;SDS011;69520;44.900;-0.764;2023-04-25T12:03:18;10.67;;;4.33;;
80199;SDS011;69520;44.900;-0.764;2023-04-25T12:05:44;8.18;;;4.13;;
80199;SDS011;69520;44.900;-0.764;2023-04-25T12:08:11;8.05;;;3.90;;
80199;SDS011;69520;44.900;-0.764;2023-04-25T12:10:38;10.32;;;4.72;;
80199;SDS011;69520;44.900;-0.764;2023-04-25T12:16:03;8.20;;;3.87;;
80199;SDS011;69520;44.900;-0.764;2023-04-25T12:18:31;8.55;;;4.00;;
80199;SDS011;69520;44.900;-0.764;2023-04-25T12:20:57;8.70;;;4.13;;
80199;SDS011;69520;44.900;-0.764;2023-04-25T12:23:27;8.18;;;3.80;;
80199;SDS011;69520;44.900;-0.764;2023-04-25T12:25:53;8.82;;;3.90;;
80199;SDS011;69520;44.900;-0.764;2023-04-25T12:28:21;8.97;;;4.27;;
80199;SDS011;69520;44.900;-0.764;2023-04-25T12:33:25;9.32;;;4.30;;
80199;SDS011;69520;44.900;-0.764;2023-04-25T12:35:52;10.05;;;4.10;;
80199;SDS011;69520;44.900;-0.764;2023-04-25T12:38:22;9.13;;;4.03;;
80199;SDS011;69520;44.900;-0.764;2023-04-25T12:40:48;8.93;;;3.90;;
80199;SDS011;69520;44.900;-0.764;2023-04-25T12:43:14;8.27;;;4.30;;
80199;SDS011;69520;44.900;-0.764;2023-04-25T12:45:40;8.05;;;4.40;;
80199;SDS011;69520;44.900;-0.764;2023-04-25T12:48:06;8.18;;;3.90;;
80199;SDS011;69520;44.900;-0.764;2023-04-25T12:50:32;8.43;;;3.90;;
80199;SDS011;69520;44.900;-0.764;2023-04-25T12:52:58;8.93;;;3.60;;
80199;SDS011;69520;44.900;-0.764;2023-04-25T12:55:24;8.15;;;3.90;;
80199;SDS011;69520;44.900;-0.764;2023-04-25T12:57:51;7.85;;;4.43;;
80199;SDS011;69520;44.900;-0.764;2023-04-25T13:00:17;8.75;;;3.80;;
80199;SDS011;69520;44.900;-0.764;2023-04-25T13:02:44;7.22;;;3.40;;
80199;SDS011;69520;44.900;-0.764;2023-04-25T13:05:14;7.63;;;3.63;;
80199;SDS011;69520;44.900;-0.764;2023-04-25T13:07:40;8.70;;;3.95;;
80199;SDS011;69520;44.900;-0.764;2023-04-25T13:10:06;8.98;;;3.53;;
80199;SDS011;69520;44.900;-0.764;2023-04-25T13:12:33;8.20;;;3.95;;
80199;SDS011;69520;44.900;-0.764;2023-04-25T13:14:59;8.45;;;3.63;;
80199;SDS011;69520;44.900;-0.764;2023-04-25T13:17:25;7.30;;;3.53;;
80199;SDS011;69520;44.900;-0.764;2023-04-25T13:19:51;9.85;;;3.70;;
80199;SDS011;69520;44.900;-0.764;2023-04-25T13:22:17;8.02;;;3.38;;
80199;SDS011;69520;44.900;-0.764;2023-04-25T13:24:45;8.02;;;3.90;;
80199;SDS011;69520;44.900;-0.764;2023-04-25T13:27:11;7.55;;;3.58;;
80199;SDS011;69520;44.900;-0.764;2023-04-25T13:29:37;8.47;;;3.37;;
80199;SDS011;69520;44.900;-0.764;2023-04-25T13:32:05;10.02;;;4.45;;
80199;SDS011;69520;44.900;-0.764;2023-04-25T13:34:31;8.57;;;4.15;;
80199;SDS011;69520;44.900;-0.764;2023-04-25T13:36:57;8.40;;;3.95;;
80199;SDS011;69520;44.900;-0.764;2023-04-25T13:39:23;7.60;;;3.50;;
80199;SDS011;69520;44.900;-0.764;2023-04-25T13:41:49;7.83;;;3.53;;
80199;SDS011;69520;44.900;-0.764;2023-04-25T13:44:15;7.70;;;3.60;;
80199;SDS011;69520;44.900;-0.764;2023-04-25T13:46:41;8.18;;;3.67;;
80199;SDS011;69520;44.900;-0.764;2023-04-25T13:49:08;8.50;;;3.45;;
80199;SDS011;69520;44.900;-0.764;2023-04-25T13:51:34;8.52;;;3.28;;
80199;SDS011;69520;44.900;-0.764;2023-04-25T13:54:00;9.47;;;3.53;;
80199;SDS011;69520;44.900;-0.764;2023-04-25T13:56:26;6.95;;;3.38;;
80199;SDS011;69520;44.900;-0.764;2023-04-25T13:58:52;8.48;;;3.65;;
80199;SDS011;69520;44.900;-0.764;2023-04-25T14:01:18;9.07;;;4.03;;
80199;SDS011;69520;44.900;-0.764;2023-04-25T14:03:46;7.18;;;3.50;;
80199;SDS011;69520;44.900;-0.764;2023-04-25T14:06:11;9.50;;;3.70;;
80199;SDS011;69520;44.900;-0.764;2023-04-25T14:08:38;8.50;;;3.63;;
80199;SDS011;69520;44.900;-0.764;2023-04-25T14:11:05;7.15;;;3.38;;
80199;SDS011;69520;44.900;-0.764;2023-04-25T14:13:31;9.63;;;3.97;;
80199;SDS011;69520;44.900;-0.764;2023-04-25T14:15:57;8.85;;;3.78;;
80199;SDS011;69520;44.900;-0.764;2023-04-25T14:18:23;8.03;;;3.60;;
80199;SDS011;69520;44.900;-0.764;2023-04-25T14:20:49;8.65;;;3.50;;
80199;SDS011;69520;44.900;-0.764;2023-04-25T14:23:16;7.90;;;3.58;;
80199;SDS011;69520;44.900;-0.764;2023-04-25T14:25:42;8.43;;;3.55;;
80199;SDS011;69520;44.900;-0.764;2023-04-25T14:28:10;8.65;;;3.50;;
80199;SDS011;69520;44.900;-0.764;2023-04-25T14:30:36;9.13;;;3.67;;
80199;SDS011;69520;44.900;-0.764;2023-04-25T14:33:02;7.05;;;3.42;;
80199;SDS011;69520;44.900;-0.764;2023-04-25T14:35:28;7.10;;;3.40;;
80199;SDS011;69520;44.900;-0.764;2023-04-25T14:37:54;8.48;;;3.70;;